AAL2570 KPHX-KLAS
Flight info
| Callsign | AAL2570 |
|---|---|
| Flight time | 0h 43m |
| Altitude | 28000 |
| Route | ZEPER2 RRSTA ELLDA RKSTR4 |
| Aircraft | A320/M-SDE3FGHIRWY/LB1 |
Departure
| Time | 2026-05-08 03:35 |
|---|---|
| Airport | Phoenix Sky Harbor International Airport (KPHX) |
Arrival
| Time | 2026-05-08 04:18 |
|---|---|
| Airport | Harry Reid International Airport (KLAS) |
| Time | Latitude | Longitude | Altitude | Speed | Heading |
|---|---|---|---|---|---|
| 2026-05-08 03:05 | 33.43828 | -111.99983 | 1125 ft | 0 kts | 128° |
| 2026-05-08 03:25 | 33.43833 | -111.99991 | 1080 ft | 2 kts | 126° |
| 2026-05-08 03:25 | 33.43843 | -112.00006 | 1119 ft | 2 kts | 94° |
| 2026-05-08 03:26 | 33.43837 | -112.00024 | 1115 ft | 2 kts | 26° |
| 2026-05-08 03:26 | 33.43824 | -112.00030 | 1119 ft | 1 kts | 0° |
| 2026-05-08 03:26 | 33.43822 | -112.00030 | 1114 ft | 0 kts | 358° |
| 2026-05-08 03:29 | 33.43828 | -112.00030 | 1119 ft | 2 kts | 358° |
| 2026-05-08 03:29 | 33.43861 | -112.00032 | 1119 ft | 8 kts | 359° |
| 2026-05-08 03:30 | 33.43907 | -111.99944 | 1125 ft | 8 kts | 92° |
| 2026-05-08 03:30 | 33.43906 | -111.99797 | 1125 ft | 11 kts | 90° |
| 2026-05-08 03:31 | 33.43906 | -111.99613 | 1126 ft | 10 kts | 90° |
| 2026-05-08 03:31 | 33.43905 | -111.99420 | 1126 ft | 17 kts | 90° |
| 2026-05-08 03:32 | 33.43904 | -111.99287 | 1126 ft | 15 kts | 90° |
| 2026-05-08 03:32 | 33.43949 | -111.99221 | 1125 ft | 7 kts | 2° |
| 2026-05-08 03:32 | 33.43978 | -111.99224 | 1134 ft | 2 kts | 356° |
| 2026-05-08 03:32 | 33.43996 | -111.99224 | 1135 ft | 3 kts | 0° |
| 2026-05-08 03:33 | 33.44008 | -111.99224 | 1134 ft | 1 kts | 0° |
| 2026-05-08 03:33 | 33.44013 | -111.99224 | 1134 ft | 0 kts | 0° |
| 2026-05-08 03:33 | 33.44021 | -111.99224 | 1136 ft | 7 kts | 360° |
| 2026-05-08 03:33 | 33.44082 | -111.99255 | 1135 ft | 10 kts | 278° |
| 2026-05-08 03:34 | 33.44082 | -111.99267 | 1135 ft | 1 kts | 271° |
| 2026-05-08 03:34 | 33.44084 | -111.99418 | 1135 ft | 47 kts | 270° |
| 2026-05-08 03:34 | 33.44084 | -112.00040 | 1132 ft | 101 kts | 270° |
| 2026-05-08 03:34 | 33.44083 | -112.01065 | 1131 ft | 142 kts | 270° |
| 2026-05-08 03:35 | 33.44091 | -112.02371 | 1270 ft | 161 kts | 271° |
| 2026-05-08 03:35 | 33.44126 | -112.03635 | 1933 ft | 147 kts | 272° |
| 2026-05-08 03:35 | 33.44161 | -112.04904 | 2125 ft | 164 kts | 272° |
| 2026-05-08 03:35 | 33.44194 | -112.06370 | 2248 ft | 188 kts | 272° |
| 2026-05-08 03:36 | 33.44232 | -112.08040 | 2485 ft | 213 kts | 271° |
| 2026-05-08 03:36 | 33.44268 | -112.09897 | 2837 ft | 231 kts | 271° |
| 2026-05-08 03:36 | 33.44310 | -112.11836 | 3484 ft | 236 kts | 271° |
| 2026-05-08 03:36 | 33.44356 | -112.13797 | 4169 ft | 239 kts | 271° |
| 2026-05-08 03:37 | 33.44404 | -112.15800 | 4892 ft | 242 kts | 271° |
| 2026-05-08 03:37 | 33.44589 | -112.17806 | 5595 ft | 245 kts | 291° |
| 2026-05-08 03:37 | 33.45628 | -112.19400 | 6321 ft | 250 kts | 327° |
| 2026-05-08 03:37 | 33.47287 | -112.20030 | 7011 ft | 255 kts | 352° |
| 2026-05-08 03:38 | 33.49065 | -112.20099 | 7784 ft | 256 kts | 360° |
| 2026-05-08 03:38 | 33.50831 | -112.19988 | 8560 ft | 258 kts | 2° |
| 2026-05-08 03:38 | 33.52624 | -112.19842 | 9356 ft | 258 kts | 2° |
| 2026-05-08 03:38 | 33.54459 | -112.19784 | 9834 ft | 273 kts | 359° |
| 2026-05-08 03:39 | 33.56408 | -112.19863 | 10266 ft | 288 kts | 357° |
| 2026-05-08 03:39 | 33.58491 | -112.20023 | 10476 ft | 311 kts | 356° |
| 2026-05-08 03:39 | 33.60703 | -112.20227 | 10890 ft | 324 kts | 355° |
| 2026-05-08 03:39 | 33.62957 | -112.20538 | 11598 ft | 329 kts | 348° |
| 2026-05-08 03:40 | 33.65181 | -112.21260 | 12318 ft | 332 kts | 346° |
| 2026-05-08 03:40 | 33.67417 | -112.21998 | 13043 ft | 335 kts | 347° |
| 2026-05-08 03:40 | 33.69642 | -112.22723 | 13770 ft | 336 kts | 346° |
| 2026-05-08 03:40 | 33.71906 | -112.23456 | 14421 ft | 338 kts | 347° |
| 2026-05-08 03:41 | 33.74194 | -112.24194 | 15015 ft | 342 kts | 347° |
| 2026-05-08 03:41 | 33.76503 | -112.24934 | 15576 ft | 346 kts | 348° |
| 2026-05-08 03:41 | 33.78840 | -112.25683 | 16169 ft | 349 kts | 348° |
| 2026-05-08 03:41 | 33.81202 | -112.26439 | 16747 ft | 353 kts | 348° |
| 2026-05-08 03:42 | 33.83587 | -112.27205 | 17330 ft | 357 kts | 348° |
| 2026-05-08 03:42 | 33.85996 | -112.27983 | 17904 ft | 360 kts | 348° |
| 2026-05-08 03:42 | 33.88434 | -112.28773 | 18445 ft | 364 kts | 348° |
| 2026-05-08 03:42 | 33.90889 | -112.29571 | 18959 ft | 367 kts | 348° |
| 2026-05-08 03:43 | 33.93363 | -112.30374 | 19480 ft | 370 kts | 348° |
| 2026-05-08 03:43 | 33.95857 | -112.31186 | 20020 ft | 372 kts | 348° |
| 2026-05-08 03:43 | 33.98364 | -112.32001 | 20550 ft | 375 kts | 348° |
| 2026-05-08 03:43 | 34.00880 | -112.32863 | 21069 ft | 379 kts | 344° |
| 2026-05-08 03:44 | 34.03290 | -112.34207 | 21587 ft | 386 kts | 333° |
| 2026-05-08 03:44 | 34.05481 | -112.36128 | 22105 ft | 393 kts | 324° |
| 2026-05-08 03:44 | 34.07591 | -112.38256 | 22599 ft | 396 kts | 324° |
| 2026-05-08 03:44 | 34.09709 | -112.40397 | 23106 ft | 398 kts | 324° |
| 2026-05-08 03:45 | 34.11832 | -112.42541 | 23558 ft | 399 kts | 324° |
| 2026-05-08 03:45 | 34.13969 | -112.44695 | 23963 ft | 402 kts | 324° |
| 2026-05-08 03:45 | 34.16130 | -112.46864 | 24337 ft | 405 kts | 324° |
| 2026-05-08 03:45 | 34.18301 | -112.49044 | 24706 ft | 407 kts | 324° |
| 2026-05-08 03:46 | 34.20479 | -112.51238 | 25119 ft | 408 kts | 324° |
| 2026-05-08 03:46 | 34.22666 | -112.53446 | 25518 ft | 410 kts | 324° |
| 2026-05-08 03:46 | 34.24866 | -112.55666 | 25894 ft | 412 kts | 324° |
| 2026-05-08 03:46 | 34.27072 | -112.57892 | 26255 ft | 414 kts | 324° |
| 2026-05-08 03:47 | 34.29286 | -112.60129 | 26630 ft | 416 kts | 324° |
| 2026-05-08 03:47 | 34.31514 | -112.62385 | 26990 ft | 418 kts | 324° |
| 2026-05-08 03:47 | 34.33748 | -112.64649 | 27350 ft | 420 kts | 324° |
| 2026-05-08 03:47 | 34.35989 | -112.66923 | 27705 ft | 421 kts | 324° |
| 2026-05-08 03:48 | 34.38242 | -112.69209 | 28001 ft | 423 kts | 324° |
| 2026-05-08 03:48 | 34.40476 | -112.71481 | 28053 ft | 412 kts | 324° |
| 2026-05-08 03:48 | 34.42654 | -112.73702 | 28048 ft | 411 kts | 324° |
| 2026-05-08 03:49 | 34.47120 | -112.78223 | 28049 ft | 431 kts | 324° |
| 2026-05-08 03:49 | 34.51818 | -112.82985 | 28055 ft | 448 kts | 323° |
| 2026-05-08 03:50 | 34.56636 | -112.87902 | 28050 ft | 454 kts | 323° |
| 2026-05-08 03:50 | 34.61479 | -112.92858 | 28048 ft | 455 kts | 323° |
| 2026-05-08 03:51 | 34.66325 | -112.97818 | 28037 ft | 455 kts | 323° |
| 2026-05-08 03:51 | 34.71187 | -113.02751 | 28029 ft | 455 kts | 324° |
| 2026-05-08 03:52 | 34.75987 | -113.07769 | 28043 ft | 456 kts | 321° |
| 2026-05-08 03:52 | 34.80468 | -113.13253 | 28015 ft | 457 kts | 317° |
| 2026-05-08 03:53 | 34.84786 | -113.18949 | 28016 ft | 458 kts | 316° |
| 2026-05-08 03:53 | 34.89124 | -113.24613 | 28003 ft | 457 kts | 317° |
| 2026-05-08 03:53 | 34.91318 | -113.27418 | 27999 ft | 457 kts | 317° |
| 2026-05-08 03:54 | 34.93519 | -113.30211 | 28011 ft | 457 kts | 317° |
| 2026-05-08 03:54 | 34.97926 | -113.35785 | 28023 ft | 456 kts | 317° |
| 2026-05-08 03:55 | 35.02276 | -113.41333 | 28019 ft | 456 kts | 317° |
| 2026-05-08 03:55 | 35.06750 | -113.46779 | 28007 ft | 452 kts | 326° |
| 2026-05-08 03:55 | 35.09217 | -113.49086 | 28018 ft | 438 kts | 326° |
| 2026-05-08 03:56 | 35.11591 | -113.51303 | 27879 ft | 421 kts | 326° |
| 2026-05-08 03:56 | 35.13877 | -113.53436 | 27747 ft | 406 kts | 326° |
| 2026-05-08 03:56 | 35.16089 | -113.55492 | 27639 ft | 392 kts | 326° |
| 2026-05-08 03:56 | 35.18228 | -113.57478 | 27513 ft | 379 kts | 326° |
| 2026-05-08 03:57 | 35.20300 | -113.59404 | 27270 ft | 371 kts | 326° |
| 2026-05-08 03:57 | 35.22337 | -113.61298 | 26897 ft | 366 kts | 326° |
| 2026-05-08 03:57 | 35.24357 | -113.63174 | 26477 ft | 363 kts | 326° |
| 2026-05-08 03:57 | 35.26359 | -113.65039 | 26047 ft | 361 kts | 326° |
| 2026-05-08 03:58 | 35.28352 | -113.66895 | 25631 ft | 358 kts | 326° |
| 2026-05-08 03:58 | 35.30327 | -113.68743 | 25217 ft | 356 kts | 326° |
| 2026-05-08 03:58 | 35.32258 | -113.70635 | 24802 ft | 355 kts | 324° |
| 2026-05-08 03:58 | 35.34155 | -113.72561 | 24392 ft | 353 kts | 323° |
| 2026-05-08 03:59 | 35.36026 | -113.74490 | 23991 ft | 351 kts | 323° |
| 2026-05-08 03:59 | 35.37886 | -113.76416 | 23564 ft | 349 kts | 323° |
| 2026-05-08 03:59 | 35.39740 | -113.78324 | 23098 ft | 347 kts | 323° |
| 2026-05-08 03:59 | 35.41585 | -113.80211 | 22663 ft | 344 kts | 323° |
| 2026-05-08 04:00 | 35.42804 | -113.81455 | 22379 ft | 342 kts | 323° |
| 2026-05-08 04:00 | 35.44628 | -113.83313 | 21955 ft | 340 kts | 323° |
| 2026-05-08 04:00 | 35.46440 | -113.85156 | 21548 ft | 337 kts | 323° |
| 2026-05-08 04:00 | 35.48237 | -113.86985 | 21156 ft | 334 kts | 323° |
| 2026-05-08 04:01 | 35.50025 | -113.88808 | 21044 ft | 339 kts | 323° |
| 2026-05-08 04:01 | 35.51895 | -113.90712 | 21052 ft | 359 kts | 323° |
| 2026-05-08 04:01 | 35.53855 | -113.92710 | 21014 ft | 366 kts | 323° |
| 2026-05-08 04:01 | 35.55784 | -113.94690 | 20746 ft | 357 kts | 322° |
| 2026-05-08 04:02 | 35.57675 | -113.96635 | 20371 ft | 352 kts | 322° |
| 2026-05-08 04:02 | 35.59542 | -113.98554 | 19986 ft | 348 kts | 322° |
| 2026-05-08 04:02 | 35.61389 | -114.00451 | 19605 ft | 344 kts | 322° |
| 2026-05-08 04:02 | 35.63219 | -114.02328 | 19230 ft | 340 kts | 322° |
| 2026-05-08 04:03 | 35.65028 | -114.04183 | 18867 ft | 337 kts | 322° |
| 2026-05-08 04:03 | 35.68600 | -114.07851 | 18141 ft | 331 kts | 322° |
| 2026-05-08 04:03 | 35.70335 | -114.09635 | 17757 ft | 328 kts | 322° |
| 2026-05-08 04:04 | 35.72096 | -114.11448 | 17403 ft | 324 kts | 322° |
| 2026-05-08 04:04 | 35.73791 | -114.13192 | 17059 ft | 320 kts | 322° |
| 2026-05-08 04:04 | 35.75432 | -114.15022 | 16742 ft | 317 kts | 314° |
| 2026-05-08 04:04 | 35.76718 | -114.17228 | 16383 ft | 319 kts | 302° |
| 2026-05-08 04:05 | 35.77769 | -114.19628 | 16024 ft | 317 kts | 301° |
| 2026-05-08 04:05 | 35.78813 | -114.22010 | 15684 ft | 315 kts | 301° |
| 2026-05-08 04:05 | 35.79857 | -114.24379 | 15348 ft | 313 kts | 301° |
| 2026-05-08 04:05 | 35.80898 | -114.26731 | 14999 ft | 312 kts | 301° |
| 2026-05-08 04:06 | 35.82216 | -114.29710 | 14563 ft | 310 kts | 301° |
| 2026-05-08 04:06 | 35.83247 | -114.32047 | 14238 ft | 309 kts | 301° |
| 2026-05-08 04:06 | 35.84383 | -114.34280 | 13927 ft | 306 kts | 310° |
| 2026-05-08 04:06 | 35.85687 | -114.36346 | 13580 ft | 306 kts | 310° |
| 2026-05-08 04:07 | 35.86985 | -114.38418 | 13227 ft | 304 kts | 310° |
| 2026-05-08 04:07 | 35.88266 | -114.40471 | 12887 ft | 301 kts | 309° |
| 2026-05-08 04:07 | 35.89542 | -114.42514 | 12575 ft | 299 kts | 309° |
| 2026-05-08 04:07 | 35.90806 | -114.44540 | 12334 ft | 297 kts | 309° |
| 2026-05-08 04:08 | 35.91642 | -114.45881 | 12173 ft | 297 kts | 309° |
| 2026-05-08 04:08 | 35.92895 | -114.47896 | 11932 ft | 295 kts | 309° |
| 2026-05-08 04:08 | 35.94141 | -114.49899 | 11685 ft | 293 kts | 309° |
| 2026-05-08 04:08 | 35.95381 | -114.51893 | 11438 ft | 292 kts | 309° |
| 2026-05-08 04:09 | 35.96611 | -114.53875 | 11209 ft | 289 kts | 309° |
| 2026-05-08 04:09 | 35.97818 | -114.55831 | 10896 ft | 286 kts | 308° |
| 2026-05-08 04:09 | 35.99024 | -114.57788 | 10535 ft | 286 kts | 308° |
| 2026-05-08 04:09 | 36.00225 | -114.59743 | 10162 ft | 286 kts | 308° |
| 2026-05-08 04:10 | 36.01430 | -114.61703 | 9778 ft | 287 kts | 308° |
| 2026-05-08 04:10 | 36.02639 | -114.63671 | 9355 ft | 286 kts | 307° |
| 2026-05-08 04:10 | 36.03814 | -114.65615 | 8969 ft | 277 kts | 303° |
| 2026-05-08 04:10 | 36.04791 | -114.67596 | 8697 ft | 263 kts | 301° |
| 2026-05-08 04:11 | 36.05717 | -114.69483 | 8450 ft | 251 kts | 301° |
| 2026-05-08 04:11 | 36.06604 | -114.71290 | 8199 ft | 241 kts | 300° |
| 2026-05-08 04:11 | 36.07221 | -114.73181 | 8049 ft | 238 kts | 281° |
| 2026-05-08 04:11 | 36.07341 | -114.75187 | 7876 ft | 237 kts | 271° |
| 2026-05-08 04:12 | 36.07336 | -114.77259 | 7316 ft | 245 kts | 270° |
| 2026-05-08 04:12 | 36.07333 | -114.79367 | 6957 ft | 245 kts | 270° |
| 2026-05-08 04:12 | 36.07337 | -114.81462 | 6650 ft | 243 kts | 270° |
| 2026-05-08 04:12 | 36.07341 | -114.83493 | 6345 ft | 227 kts | 270° |
| 2026-05-08 04:13 | 36.07345 | -114.85363 | 6036 ft | 208 kts | 270° |
| 2026-05-08 04:13 | 36.07349 | -114.87077 | 5779 ft | 192 kts | 269° |
| 2026-05-08 04:13 | 36.07351 | -114.88674 | 5547 ft | 182 kts | 269° |
| 2026-05-08 04:13 | 36.07353 | -114.90237 | 5320 ft | 181 kts | 269° |
| 2026-05-08 04:14 | 36.07356 | -114.91791 | 5094 ft | 181 kts | 270° |
| 2026-05-08 04:14 | 36.07358 | -114.93349 | 4870 ft | 181 kts | 269° |
| 2026-05-08 04:14 | 36.07359 | -114.94902 | 4643 ft | 179 kts | 269° |
| 2026-05-08 04:14 | 36.07361 | -114.96431 | 4421 ft | 177 kts | 269° |
| 2026-05-08 04:15 | 36.07362 | -114.97957 | 4175 ft | 178 kts | 269° |
| 2026-05-08 04:15 | 36.07363 | -114.99462 | 3979 ft | 176 kts | 269° |
| 2026-05-08 04:15 | 36.07364 | -115.00938 | 3753 ft | 169 kts | 269° |
| 2026-05-08 04:15 | 36.07365 | -115.02361 | 3597 ft | 163 kts | 269° |
| 2026-05-08 04:16 | 36.07366 | -115.03744 | 3391 ft | 160 kts | 269° |
| 2026-05-08 04:16 | 36.07366 | -115.05115 | 3207 ft | 159 kts | 270° |
| 2026-05-08 04:16 | 36.07366 | -115.06491 | 3024 ft | 161 kts | 268° |
| 2026-05-08 04:16 | 36.07366 | -115.07874 | 2822 ft | 161 kts | 269° |
| 2026-05-08 04:17 | 36.07362 | -115.09274 | 2649 ft | 164 kts | 270° |
| 2026-05-08 04:17 | 36.07357 | -115.10691 | 2404 ft | 166 kts | 271° |
| 2026-05-08 04:17 | 36.07362 | -115.12121 | 2195 ft | 166 kts | 271° |
| 2026-05-08 04:17 | 36.07366 | -115.13496 | 2090 ft | 150 kts | 271° |
| 2026-05-08 04:18 | 36.07368 | -115.14620 | 2126 ft | 99 kts | 270° |
| 2026-05-08 04:18 | 36.07371 | -115.15193 | 2136 ft | 45 kts | 271° |
| 2026-05-08 04:18 | 36.07428 | -115.15422 | 2146 ft | 25 kts | 298° |
| 2026-05-08 04:18 | 36.07517 | -115.15603 | 2149 ft | 24 kts | 302° |
| 2026-05-08 04:19 | 36.07617 | -115.15709 | 2152 ft | 17 kts | 313° |
| 2026-05-08 04:19 | 36.07707 | -115.15815 | 2152 ft | 18 kts | 327° |
| 2026-05-08 04:19 | 36.07827 | -115.15813 | 2153 ft | 18 kts | 0° |
| 2026-05-08 04:19 | 36.07881 | -115.15710 | 2150 ft | 18 kts | 90° |
| 2026-05-08 04:20 | 36.07880 | -115.15540 | 2147 ft | 21 kts | 90° |
| 2026-05-08 04:20 | 36.07880 | -115.15346 | 2144 ft | 24 kts | 90° |
| 2026-05-08 04:20 | 36.07881 | -115.15117 | 2135 ft | 29 kts | 91° |
| 2026-05-08 04:20 | 36.07865 | -115.14884 | 2128 ft | 18 kts | 94° |
| 2026-05-08 04:21 | 36.07855 | -115.14733 | 2120 ft | 13 kts | 93° |
| 2026-05-08 04:21 | 36.07851 | -115.14662 | 2116 ft | 9 kts | 93° |
| 2026-05-08 04:21 | 36.07876 | -115.14627 | 2116 ft | 2 kts | 25° |
| 2026-05-08 04:21 | 36.07883 | -115.14623 | 2118 ft | 4 kts | 25° |
| 2026-05-08 04:22 | 36.07914 | -115.14614 | 2119 ft | 7 kts | 3° |
| 2026-05-08 04:22 | 36.07961 | -115.14619 | 2121 ft | 0 kts | 353° |
| 2026-05-08 04:22 | 36.07966 | -115.14620 | 2121 ft | 1 kts | 354° |